createdAt,value
2018-04-10T00:00:23.535Z,28.47
2018-04-10T00:02:51.155Z,29.23
2018-04-10T00:05:18.560Z,29.17
2018-04-10T00:07:45.975Z,28.90
2018-04-10T00:10:13.418Z,28.50
2018-04-10T00:12:40.843Z,28.87
2018-04-10T00:15:08.262Z,26.97
2018-04-10T00:17:35.692Z,25.53
2018-04-10T00:20:03.121Z,30.30
2018-04-10T00:22:30.532Z,28.70
2018-04-10T00:24:57.985Z,28.37
2018-04-10T00:27:25.388Z,25.97
2018-04-10T00:29:52.822Z,26.53
2018-04-10T00:32:20.231Z,28.83
2018-04-10T00:34:47.668Z,28.30
2018-04-10T00:37:15.079Z,29.93
2018-04-10T00:39:42.515Z,30.20
2018-04-10T00:42:09.949Z,28.87
2018-04-10T00:44:37.375Z,29.77
2018-04-10T00:47:04.795Z,27.60
2018-04-10T00:49:32.215Z,26.57
2018-04-10T00:51:59.635Z,25.57
2018-04-10T00:54:27.108Z,23.60
2018-04-10T00:56:54.527Z,23.80
2018-04-10T00:59:21.935Z,26.30
2018-04-10T01:01:49.364Z,25.17
2018-04-10T01:04:16.765Z,24.77
2018-04-10T01:06:44.192Z,25.53
2018-04-10T01:09:11.604Z,25.00
2018-04-10T01:11:39.007Z,23.83
2018-04-10T01:14:06.429Z,23.67
2018-04-10T01:16:33.843Z,24.73
2018-04-10T01:19:01.270Z,26.27
2018-04-10T01:21:28.679Z,26.13
2018-04-10T01:23:56.102Z,26.20
2018-04-10T01:26:23.506Z,24.73
2018-04-10T01:28:50.931Z,25.40
2018-04-10T01:31:18.351Z,21.97
2018-04-10T01:33:45.787Z,24.00
2018-04-10T01:36:13.198Z,23.70
2018-04-10T01:38:40.624Z,24.80
2018-04-10T01:41:08.043Z,23.07
2018-04-10T01:43:35.457Z,24.33
2018-04-10T01:46:02.878Z,25.30
2018-04-10T01:48:30.294Z,26.13
2018-04-10T01:50:57.711Z,26.10
2018-04-10T01:53:25.119Z,23.97
2018-04-10T01:55:52.538Z,24.67
2018-04-10T01:58:19.952Z,23.43
2018-04-10T02:00:47.380Z,26.50
2018-04-10T02:03:14.789Z,26.90
2018-04-10T02:05:42.198Z,29.47
2018-04-10T02:08:09.614Z,27.33
2018-04-10T02:10:37.028Z,26.57
2018-04-10T02:13:04.447Z,24.07
2018-04-10T02:15:31.871Z,24.27
2018-04-10T02:17:59.305Z,23.70
2018-04-10T02:20:26.741Z,28.03
2018-04-10T02:22:54.169Z,31.60
2018-04-10T02:25:21.587Z,28.10
2018-04-10T02:27:49.164Z,27.73
2018-04-10T02:30:16.603Z,26.07
2018-04-10T02:32:44.023Z,26.13
2018-04-10T02:35:11.447Z,24.90
2018-04-10T02:37:39.293Z,27.50
2018-04-10T02:40:06.732Z,30.03
2018-04-10T02:42:34.147Z,28.67
2018-04-10T02:45:01.571Z,30.03
2018-04-10T02:47:29.007Z,29.10
2018-04-10T02:49:56.420Z,30.07
2018-04-10T02:52:23.841Z,27.90
2018-04-10T02:54:51.267Z,27.03
2018-04-10T02:57:18.691Z,28.37
2018-04-10T02:59:46.151Z,25.40
2018-04-10T03:02:13.571Z,25.70
2018-04-10T03:04:40.982Z,30.13
2018-04-10T03:07:08.408Z,32.47
2018-04-10T03:09:35.988Z,30.70
2018-04-10T03:12:03.403Z,26.57
2018-04-10T03:14:30.824Z,31.23
2018-04-10T03:16:58.246Z,32.67
2018-04-10T03:19:25.669Z,32.87
2018-04-10T03:21:53.201Z,31.10
2018-04-10T03:24:20.612Z,31.50
2018-04-10T03:26:48.028Z,30.07
2018-04-10T03:29:15.450Z,32.60
2018-04-10T03:31:42.856Z,28.70
2018-04-10T03:34:10.296Z,31.87
2018-04-10T03:36:37.712Z,32.10
2018-04-10T03:39:06.135Z,29.80
2018-04-10T03:41:33.559Z,29.77
2018-04-10T03:44:00.971Z,28.50
2018-04-10T03:46:28.400Z,33.90
2018-04-10T03:48:55.823Z,30.53
2018-04-10T03:51:23.243Z,30.93
2018-04-10T03:53:50.666Z,28.80
2018-04-10T03:56:18.103Z,30.37
2018-04-10T03:58:45.530Z,32.57
2018-04-10T04:01:12.952Z,27.73
2018-04-10T04:03:40.366Z,33.63
2018-04-10T04:06:07.979Z,33.27
2018-04-10T04:08:35.384Z,32.27
2018-04-10T04:11:02.803Z,34.60
2018-04-10T04:13:30.234Z,34.20
2018-04-10T04:15:57.631Z,33.47
2018-04-10T04:18:36.752Z,31.47
2018-04-10T04:21:16.023Z,32.03
2018-04-10T04:23:43.443Z,29.60
2018-04-10T04:26:10.851Z,29.57
2018-04-10T04:28:38.283Z,29.50
2018-04-10T04:31:05.692Z,28.63
2018-04-10T04:33:33.117Z,28.17
2018-04-10T04:36:00.532Z,28.23
2018-04-10T04:38:27.964Z,29.00
2018-04-10T04:40:55.374Z,30.50
2018-04-10T04:43:22.815Z,37.50
2018-04-10T04:45:50.219Z,36.70
2018-04-10T04:48:17.669Z,38.53
2018-04-10T04:50:45.075Z,33.73
2018-04-10T04:53:12.515Z,29.90
2018-04-10T04:55:39.937Z,35.03
2018-04-10T04:58:07.376Z,34.50
2018-04-10T05:00:34.811Z,32.30
2018-04-10T05:03:02.224Z,33.83
2018-04-10T05:05:29.667Z,32.73
2018-04-10T05:07:57.090Z,37.90
2018-04-10T05:10:24.505Z,33.80
2018-04-10T05:12:51.923Z,34.03
2018-04-10T05:15:19.335Z,31.60
2018-04-10T05:17:46.951Z,28.80
2018-04-10T05:20:14.369Z,29.30
2018-04-10T05:22:41.787Z,32.73
2018-04-10T05:25:09.211Z,34.57
2018-04-10T05:27:39.973Z,31.30
2018-04-10T05:30:07.387Z,29.80
2018-04-10T05:32:34.799Z,29.87
2018-04-10T05:35:02.690Z,30.43
2018-04-10T05:37:30.087Z,28.93
2018-04-10T05:39:57.519Z,29.17
2018-04-10T05:42:24.938Z,28.87
2018-04-10T05:44:52.366Z,31.63
2018-04-10T05:47:19.784Z,32.10
2018-04-10T05:49:47.206Z,32.13
2018-04-10T05:52:14.628Z,35.47
2018-04-10T05:54:42.048Z,37.73
2018-04-10T05:57:09.613Z,34.77
2018-04-10T05:59:37.043Z,35.90
2018-04-10T06:02:04.446Z,32.90
2018-04-10T06:04:31.882Z,33.97
2018-04-10T06:06:59.299Z,33.73
2018-04-10T06:09:26.727Z,36.73
2018-04-10T06:11:54.142Z,34.70
2018-04-10T06:14:21.912Z,36.20
2018-04-10T06:16:49.331Z,31.90
2018-04-10T06:19:16.739Z,34.33
2018-04-10T06:21:44.169Z,33.20
2018-04-10T06:24:11.584Z,33.47
2018-04-10T06:26:39.011Z,33.30
2018-04-10T06:29:06.414Z,33.47
2018-04-10T06:31:33.839Z,32.07
2018-04-10T06:34:01.243Z,31.43
2018-04-10T06:36:28.688Z,32.00
2018-04-10T06:38:56.128Z,32.73
2018-04-10T06:41:23.704Z,31.70
2018-04-10T06:43:51.137Z,34.30
2018-04-10T06:46:18.555Z,33.43
2018-04-10T06:48:45.979Z,31.80
2018-04-10T06:51:13.940Z,32.67
2018-04-10T06:53:41.367Z,35.30
2018-04-10T06:56:08.789Z,31.30
2018-04-10T06:58:36.203Z,31.97
2018-04-10T07:01:03.635Z,32.67
2018-04-10T07:03:31.080Z,35.37
2018-04-10T07:05:58.508Z,34.80
2018-04-10T07:08:25.940Z,36.13
2018-04-10T07:10:53.361Z,33.83
2018-04-10T07:13:20.819Z,36.13
2018-04-10T07:15:48.231Z,34.97
2018-04-10T07:18:15.648Z,33.40
2018-04-10T07:20:43.075Z,31.92
2018-04-10T07:23:10.498Z,31.23
2018-04-10T07:25:37.937Z,30.73
2018-04-10T07:28:05.399Z,32.22
2018-04-10T07:30:32.823Z,31.35
2018-04-10T07:33:00.265Z,30.83
2018-04-10T07:35:27.691Z,29.87
2018-04-10T07:37:55.109Z,32.30
2018-04-10T07:40:22.852Z,32.05
2018-04-10T07:42:50.259Z,27.92
2018-04-10T07:45:17.687Z,32.83
2018-04-10T07:47:45.124Z,30.83
2018-04-10T07:50:12.629Z,33.88
2018-04-10T07:52:40.048Z,32.35
2018-04-10T07:55:07.463Z,31.77
2018-04-10T07:57:34.903Z,31.00
2018-04-10T08:00:02.330Z,33.63
2018-04-10T08:02:29.792Z,34.45
2018-04-10T08:04:57.181Z,31.42
2018-04-10T08:07:24.612Z,28.85
2018-04-10T08:09:52.059Z,30.02
2018-04-10T08:12:19.650Z,31.62
2018-04-10T08:14:47.115Z,33.47
2018-04-10T08:17:14.632Z,31.58
2018-04-10T08:19:42.084Z,34.38
2018-04-10T08:22:09.497Z,28.60
2018-04-10T08:24:36.937Z,33.80
2018-04-10T08:27:04.361Z,29.40
2018-04-10T08:29:31.767Z,30.48
2018-04-10T08:31:59.214Z,28.70
2018-04-10T08:34:26.795Z,29.45
2018-04-10T08:36:54.216Z,30.05
2018-04-10T08:39:21.623Z,30.45
2018-04-10T08:41:49.063Z,32.45
2018-04-10T08:44:16.492Z,29.73
2018-04-10T08:46:44.037Z,29.08
2018-04-10T08:49:11.492Z,28.52
2018-04-10T08:51:38.896Z,29.60
2018-04-10T08:54:06.325Z,26.25
2018-04-10T08:56:33.867Z,26.73
2018-04-10T08:59:01.279Z,26.52
2018-04-10T09:01:28.683Z,27.25
2018-04-10T09:03:56.103Z,25.35
2018-04-10T09:06:23.521Z,24.30
2018-04-10T09:08:50.953Z,28.25
2018-04-10T09:11:18.376Z,26.70
2018-04-10T09:13:45.795Z,29.00
2018-04-10T09:16:13.241Z,28.98
2018-04-10T09:18:40.643Z,27.90
2018-04-10T09:21:08.059Z,26.67
2018-04-10T09:23:35.483Z,26.60
2018-04-10T09:26:02.898Z,29.20
2018-04-10T09:28:30.308Z,28.12
2018-04-10T09:30:57.795Z,29.25
2018-04-10T09:33:25.230Z,29.25
2018-04-10T09:35:52.649Z,30.52
2018-04-10T09:38:20.065Z,29.77
2018-04-10T09:40:47.478Z,28.67
2018-04-10T09:43:14.905Z,28.33
2018-04-10T09:45:42.323Z,29.50
2018-04-10T09:48:09.743Z,29.15
2018-04-10T09:50:37.209Z,30.58
2018-04-10T09:53:04.709Z,34.60
2018-04-10T09:55:32.224Z,29.67
2018-04-10T09:57:59.683Z,32.83
2018-04-10T10:00:32.807Z,35.20
2018-04-10T10:03:00.351Z,36.17
2018-04-10T10:05:27.788Z,36.72
2018-04-10T10:07:56.167Z,35.53
2018-04-10T10:10:23.579Z,36.45
2018-04-10T10:12:51.032Z,35.88
2018-04-10T10:15:18.427Z,34.97
2018-04-10T10:17:46.016Z,34.67
2018-04-10T10:20:13.433Z,33.65
2018-04-10T10:22:40.863Z,35.77
2018-04-10T10:25:08.310Z,36.78
2018-04-10T10:27:35.723Z,36.40
2018-04-10T10:30:03.155Z,34.75
2018-04-10T10:32:30.574Z,35.80
2018-04-10T10:34:58.025Z,37.83
2018-04-10T10:37:25.453Z,36.85
2018-04-10T10:39:52.880Z,36.97
2018-04-10T10:42:20.329Z,37.43
2018-04-10T10:44:47.774Z,35.83
2018-04-10T10:47:15.203Z,34.83
2018-04-10T10:49:42.622Z,35.05
2018-04-10T10:52:10.083Z,35.22
2018-04-10T10:54:37.514Z,36.63
2018-04-10T10:57:04.931Z,35.55
2018-04-10T10:59:32.387Z,36.55
2018-04-10T11:01:59.799Z,36.78
2018-04-10T11:04:27.235Z,40.65
2018-04-10T11:06:54.676Z,35.75
2018-04-10T11:09:22.129Z,40.40
2018-04-10T11:11:49.549Z,42.80
2018-04-10T11:14:16.981Z,33.78
2018-04-10T11:16:44.500Z,37.97
2018-04-10T11:19:11.965Z,38.72
2018-04-10T11:21:39.436Z,35.75
2018-04-10T11:24:06.856Z,36.73
2018-04-10T11:26:34.272Z,39.63
2018-04-10T11:29:01.748Z,39.25
2018-04-10T11:31:29.166Z,41.25
2018-04-10T11:33:56.605Z,37.60
2018-04-10T11:36:24.039Z,42.00
2018-04-10T11:38:51.481Z,42.05
2018-04-10T11:41:18.928Z,43.00
2018-04-10T11:43:46.417Z,39.00
2018-04-10T11:46:13.835Z,34.15
2018-04-10T11:48:41.287Z,41.47
2018-04-10T11:51:08.765Z,38.83
2018-04-10T11:53:36.175Z,37.33
2018-04-10T11:56:03.621Z,41.85
2018-04-10T11:58:31.080Z,42.58
2018-04-10T12:00:58.495Z,41.13
2018-04-10T12:03:25.929Z,40.67
2018-04-10T12:05:53.381Z,41.83
2018-04-10T12:08:20.818Z,35.80
2018-04-10T12:10:48.231Z,38.97
2018-04-10T12:13:15.707Z,39.38
2018-04-10T12:15:43.126Z,38.85
2018-04-10T12:18:10.591Z,39.25
2018-04-10T12:20:38.028Z,37.72
2018-04-10T12:23:05.455Z,39.78
2018-04-10T12:25:32.915Z,39.50
2018-04-10T12:28:00.584Z,37.47
2018-04-10T12:30:27.990Z,37.08
2018-04-10T12:32:55.442Z,35.92
2018-04-10T12:35:22.873Z,42.03
2018-04-10T12:37:50.317Z,40.10
2018-04-10T12:40:17.757Z,39.22
2018-04-10T12:42:45.181Z,38.30
2018-04-10T12:45:12.604Z,39.38
2018-04-10T12:47:40.042Z,38.90
2018-04-10T12:50:07.543Z,40.95
2018-04-10T12:52:34.979Z,36.33
2018-04-10T12:55:02.450Z,40.05
2018-04-10T12:57:29.887Z,39.75
2018-04-10T12:59:57.427Z,39.22
2018-04-10T13:02:24.869Z,38.30
2018-04-10T13:04:52.298Z,39.58
2018-04-10T13:07:19.725Z,38.58
2018-04-10T13:09:47.150Z,41.72
2018-04-10T13:12:14.576Z,39.35
2018-04-10T13:14:41.999Z,40.58
2018-04-10T13:17:09.424Z,37.70
2018-04-10T13:19:36.844Z,36.55
2018-04-10T13:22:04.263Z,37.67
2018-04-10T13:24:31.692Z,39.03
2018-04-10T13:26:59.172Z,38.00
2018-04-10T13:29:26.584Z,38.87
2018-04-10T13:31:53.995Z,39.78
2018-04-10T13:34:21.411Z,39.97
2018-04-10T13:36:48.834Z,38.53
2018-04-10T13:39:16.252Z,39.88
2018-04-10T13:41:43.667Z,39.10
2018-04-10T13:44:11.099Z,42.75
2018-04-10T13:46:38.520Z,41.83
2018-04-10T13:49:06.207Z,42.13
2018-04-10T13:51:33.626Z,41.45
2018-04-10T13:54:01.037Z,42.03
2018-04-10T13:56:28.484Z,42.25
2018-04-10T13:58:56.056Z,44.45
2018-04-10T14:01:23.479Z,45.40
2018-04-10T14:03:50.890Z,46.15
2018-04-10T14:06:18.312Z,44.90
2018-04-10T14:08:45.741Z,44.42
2018-04-10T14:11:13.228Z,43.53
2018-04-10T14:13:40.627Z,38.70
2018-04-10T14:16:08.039Z,43.28
2018-04-10T14:18:35.477Z,44.75
2018-04-10T14:21:03.235Z,42.50
2018-04-10T14:23:30.680Z,40.25
2018-04-10T14:25:58.094Z,43.70
2018-04-10T14:28:25.519Z,41.58
2018-04-10T14:30:52.925Z,43.90
2018-04-10T14:33:20.355Z,40.08
2018-04-10T14:35:47.775Z,41.88
2018-04-10T14:38:15.207Z,41.45
2018-04-10T14:40:42.628Z,38.53
2018-04-10T14:43:10.051Z,41.63
2018-04-10T14:45:37.464Z,40.67
2018-04-10T14:48:04.872Z,44.10
2018-04-10T14:50:32.327Z,45.28
2018-04-10T14:52:59.716Z,41.30
2018-04-10T14:55:27.151Z,45.10
2018-04-10T14:57:54.555Z,41.65
2018-04-10T15:00:21.968Z,40.53
2018-04-10T15:02:49.398Z,40.47
2018-04-10T15:05:16.799Z,39.90
2018-04-10T15:07:44.230Z,38.40
2018-04-10T15:10:11.660Z,36.92
2018-04-10T15:12:39.067Z,38.53
2018-04-10T15:15:06.482Z,35.25
2018-04-10T15:17:33.909Z,34.83
2018-04-10T15:20:01.315Z,35.28
2018-04-10T15:22:28.723Z,34.13
2018-04-10T15:24:56.147Z,34.47
2018-04-10T15:27:23.559Z,33.85
2018-04-10T15:29:50.999Z,32.78
2018-04-10T15:32:18.444Z,33.67
2018-04-10T15:34:45.883Z,34.67
2018-04-10T15:37:13.324Z,30.40
2018-04-10T15:39:40.722Z,32.63
2018-04-10T15:42:08.155Z,31.05
2018-04-10T15:44:35.579Z,31.48
2018-04-10T15:47:03.045Z,27.80
2018-04-10T15:49:30.706Z,29.67
2018-04-10T15:51:58.127Z,28.38
2018-04-10T15:54:25.536Z,26.20
2018-04-10T15:56:52.961Z,27.62
2018-04-10T15:59:20.377Z,28.10
2018-04-10T16:01:47.835Z,28.52
2018-04-10T16:04:15.283Z,26.85
2018-04-10T16:06:42.729Z,30.27
2018-04-10T16:09:10.124Z,27.17
2018-04-10T16:11:37.565Z,29.80
2018-04-10T16:14:04.976Z,30.90
2018-04-10T16:16:32.682Z,28.92
2018-04-10T16:19:00.095Z,30.50
2018-04-10T16:21:27.503Z,31.15
2018-04-10T16:23:54.935Z,29.27
2018-04-10T16:26:22.346Z,27.03
2018-04-10T16:28:49.800Z,29.20
2018-04-10T16:31:17.217Z,30.33
2018-04-10T16:33:44.619Z,29.85
2018-04-10T16:36:12.756Z,30.40
2018-04-10T16:38:40.167Z,30.25
2018-04-10T16:41:07.707Z,29.57
2018-04-10T16:43:35.122Z,30.63
2018-04-10T16:46:02.526Z,31.60
2018-04-10T16:48:29.960Z,30.87
2018-04-10T16:50:57.371Z,32.70
2018-04-10T16:53:24.781Z,32.03
2018-04-10T16:55:52.212Z,31.57
2018-04-10T16:58:19.619Z,32.53
2018-04-10T17:00:47.056Z,33.83
2018-04-10T17:03:14.469Z,32.83
2018-04-10T17:05:41.887Z,31.30
2018-04-10T17:08:09.297Z,32.23
2018-04-10T17:10:36.715Z,31.17
2018-04-10T17:13:04.184Z,32.27
2018-04-10T17:15:31.611Z,31.33
2018-04-10T17:17:59.055Z,32.43
2018-04-10T17:20:26.477Z,32.27
2018-04-10T17:22:53.947Z,33.57
2018-04-10T17:25:21.366Z,29.97
2018-04-10T17:27:48.837Z,29.77
2018-04-10T17:30:16.224Z,27.87
2018-04-10T17:32:43.635Z,30.73
2018-04-10T17:35:11.058Z,31.23
2018-04-10T17:37:38.488Z,32.03
2018-04-10T17:40:05.903Z,33.07
2018-04-10T17:42:33.311Z,30.57
2018-04-10T17:45:00.852Z,26.83
2018-04-10T17:47:28.255Z,31.67
2018-04-10T17:49:55.671Z,29.53
2018-04-10T17:52:23.107Z,32.00
2018-04-10T17:54:50.520Z,32.50
2018-04-10T17:57:18.204Z,34.53
2018-04-10T17:59:45.671Z,30.00
2018-04-10T18:02:13.083Z,31.40
2018-04-10T18:04:40.520Z,31.50
2018-04-10T18:07:07.928Z,39.50
2018-04-10T18:09:35.350Z,34.70
2018-04-10T18:12:02.756Z,32.30
2018-04-10T18:14:30.186Z,31.60
2018-04-10T18:16:57.591Z,32.23
2018-04-10T18:19:25.014Z,33.03
2018-04-10T18:21:52.428Z,32.50
2018-04-10T18:24:19.848Z,33.43
2018-04-10T18:26:47.263Z,30.97
2018-04-10T18:29:14.695Z,30.77
2018-04-10T18:31:42.139Z,31.93
2018-04-10T18:34:09.540Z,32.50
2018-04-10T18:36:36.998Z,33.33
2018-04-10T18:39:04.416Z,30.97
2018-04-10T18:41:31.985Z,31.60
2018-04-10T18:43:59.383Z,31.53
2018-04-10T18:46:26.793Z,29.63
2018-04-10T18:48:54.228Z,31.73
2018-04-10T18:51:21.670Z,30.03
2018-04-10T18:53:49.250Z,29.90
2018-04-10T18:56:16.920Z,30.87
2018-04-10T18:58:44.324Z,29.17
2018-04-10T19:01:11.892Z,30.23
2018-04-10T19:03:39.327Z,29.23
2018-04-10T19:06:06.744Z,30.20
2018-04-10T19:08:34.165Z,28.40
2018-04-10T19:11:01.576Z,29.27
2018-04-10T19:13:29.281Z,29.47
2018-04-10T19:15:56.707Z,28.20
2018-04-10T19:18:24.120Z,31.43
2018-04-10T19:20:51.549Z,30.07
2018-04-10T19:23:18.955Z,31.57
2018-04-10T19:25:47.083Z,31.93
2018-04-10T19:28:14.499Z,30.63
2018-04-10T19:30:41.960Z,30.83
2018-04-10T19:33:09.395Z,29.13
2018-04-10T19:35:36.814Z,27.30
2018-04-10T19:38:04.303Z,29.17
2018-04-10T19:40:31.752Z,28.23
2018-04-10T19:42:59.200Z,27.07
2018-04-10T19:45:26.678Z,26.50
2018-04-10T19:47:54.105Z,26.87
2018-04-10T19:50:21.537Z,25.50
2018-04-10T19:52:48.961Z,26.73
2018-04-10T19:55:16.394Z,26.47
2018-04-10T19:57:44.027Z,28.83
2018-04-10T20:00:11.443Z,25.73
2018-04-10T20:02:38.856Z,26.63
2018-04-10T20:05:06.288Z,24.47
2018-04-10T20:07:33.703Z,23.60
2018-04-10T20:10:01.111Z,24.97
2018-04-10T20:12:28.645Z,25.90
2018-04-10T20:14:56.090Z,21.43
2018-04-10T20:17:23.498Z,25.57
2018-04-10T20:19:50.944Z,23.67
2018-04-10T20:22:18.367Z,24.83
2018-04-10T20:24:46.079Z,26.53
2018-04-10T20:27:13.491Z,27.73
2018-04-10T20:29:40.912Z,30.00
2018-04-10T20:32:08.327Z,30.10
2018-04-10T20:34:35.743Z,27.43
2018-04-10T20:37:03.194Z,28.77
2018-04-10T20:39:30.608Z,25.60
2018-04-10T20:41:58.065Z,29.20
2018-04-10T20:44:25.470Z,30.13
2018-04-10T20:46:52.883Z,29.27
2018-04-10T20:49:20.456Z,26.33
2018-04-10T20:51:47.860Z,29.80
2018-04-10T20:54:15.276Z,27.43
2018-04-10T20:56:42.703Z,26.33
2018-04-10T20:59:10.128Z,25.13
2018-04-10T21:01:37.551Z,24.30
2018-04-10T21:04:04.995Z,24.70
2018-04-10T21:06:32.433Z,29.87
2018-04-10T21:08:59.889Z,28.93
2018-04-10T21:11:27.299Z,27.90
2018-04-10T21:13:54.708Z,28.93
2018-04-10T21:16:22.142Z,30.53
2018-04-10T21:18:49.565Z,32.43
2018-04-10T21:21:16.989Z,31.50
2018-04-10T21:23:44.584Z,31.50
2018-04-10T21:26:12.164Z,27.90
2018-04-10T21:28:39.564Z,31.87
2018-04-10T21:31:07.007Z,31.23
2018-04-10T21:33:34.404Z,31.93
2018-04-10T21:36:01.840Z,33.00
2018-04-10T21:38:29.264Z,34.60
2018-04-10T21:40:56.687Z,31.60
2018-04-10T21:43:29.978Z,32.37
2018-04-10T21:45:57.399Z,32.77
2018-04-10T21:48:24.842Z,32.93
2018-04-10T21:50:52.261Z,32.27
2018-04-10T21:53:19.674Z,33.50
2018-04-10T21:55:47.112Z,33.07
2018-04-10T21:58:14.524Z,33.10
2018-04-10T22:00:41.955Z,32.37
2018-04-10T22:03:09.612Z,31.37
2018-04-10T22:05:37.030Z,32.93
2018-04-10T22:08:04.436Z,31.57
2018-04-10T22:10:31.870Z,33.40
2018-04-10T22:12:59.279Z,32.30
2018-04-10T22:15:26.703Z,31.33
2018-04-10T22:17:54.161Z,30.33
2018-04-10T22:20:21.530Z,28.90
2018-04-10T22:22:48.955Z,31.07
2018-04-10T22:25:16.375Z,29.27
2018-04-10T22:27:43.798Z,31.57
2018-04-10T22:30:11.265Z,31.17
2018-04-10T22:32:38.652Z,31.20
2018-04-10T22:35:06.076Z,33.10
2018-04-10T22:37:33.495Z,31.73
2018-04-10T22:40:00.924Z,34.13
2018-04-10T22:42:28.344Z,32.70
2018-04-10T22:44:55.786Z,33.10
2018-04-10T22:47:23.201Z,33.43
2018-04-10T22:49:50.636Z,33.97
2018-04-10T22:52:18.064Z,33.87
2018-04-10T22:54:45.631Z,32.50
2018-04-10T22:57:13.047Z,34.57
2018-04-10T22:59:40.468Z,33.83
2018-04-10T23:02:07.904Z,35.27
2018-04-10T23:04:35.315Z,35.13
2018-04-10T23:07:02.740Z,32.00
2018-04-10T23:09:30.164Z,33.30
2018-04-10T23:11:57.740Z,31.50
2018-04-10T23:14:25.168Z,32.27
2018-04-10T23:16:52.584Z,32.37
2018-04-10T23:19:20.012Z,31.83
2018-04-10T23:21:47.454Z,33.87
2018-04-10T23:24:14.868Z,33.53
2018-04-10T23:26:42.294Z,31.37
2018-04-10T23:29:09.879Z,32.37
2018-04-10T23:31:37.292Z,32.10
2018-04-10T23:34:04.718Z,33.20
2018-04-10T23:36:32.144Z,30.77
2018-04-10T23:38:59.552Z,29.90
2018-04-10T23:41:26.981Z,32.37
2018-04-10T23:43:54.391Z,33.17
2018-04-10T23:46:21.811Z,35.13
2018-04-10T23:48:49.231Z,33.37
2018-04-10T23:51:16.667Z,33.93
2018-04-10T23:53:44.089Z,32.17
2018-04-10T23:56:11.514Z,32.47
2018-04-10T23:58:38.919Z,33.03
